createdAt,value
2023-05-24T00:00:06.292Z,9.11
2023-05-24T00:02:32.846Z,9.08
2023-05-24T00:05:01.096Z,9.13
2023-05-24T00:07:27.880Z,9.08
2023-05-24T00:09:54.404Z,9.09
2023-05-24T00:12:20.898Z,9.10
2023-05-24T00:14:47.433Z,9.07
2023-05-24T00:17:14.080Z,8.97
2023-05-24T00:19:40.661Z,8.92
2023-05-24T00:22:07.276Z,8.85
2023-05-24T00:24:33.796Z,8.77
2023-05-24T00:27:01.062Z,8.76
2023-05-24T00:29:27.685Z,8.69
2023-05-24T00:31:54.720Z,8.69
2023-05-24T00:34:21.215Z,8.73
2023-05-24T00:36:47.722Z,8.77
2023-05-24T00:39:14.292Z,8.83
2023-05-24T00:41:40.802Z,8.86
2023-05-24T00:44:07.408Z,8.97
2023-05-24T00:46:35.162Z,8.92
2023-05-24T00:49:01.845Z,8.71
2023-05-24T00:51:28.717Z,8.61
2023-05-24T00:53:56.171Z,8.61
2023-05-24T00:56:23.312Z,8.55
2023-05-24T00:58:54.501Z,8.54
2023-05-24T01:01:21.058Z,8.57
2023-05-24T01:03:48.195Z,8.54
2023-05-24T01:06:16.234Z,8.46
2023-05-24T01:09:05.016Z,8.45
2023-05-24T01:11:55.872Z,8.47
2023-05-24T01:14:40.924Z,8.50
2023-05-24T01:17:20.950Z,8.49
2023-05-24T01:20:10.119Z,8.50
2023-05-24T01:22:58.353Z,8.49
2023-05-24T01:25:46.937Z,8.44
2023-05-24T01:28:13.830Z,8.51
2023-05-24T01:30:41.640Z,8.50
2023-05-24T01:33:08.900Z,8.42
2023-05-24T01:35:40.257Z,8.36
2023-05-24T01:38:07.241Z,8.38
2023-05-24T01:40:34.222Z,8.43
2023-05-24T01:43:26.372Z,8.43
2023-05-24T01:45:55.809Z,8.31
2023-05-24T01:48:28.989Z,8.32
2023-05-24T01:50:59.759Z,8.35
2023-05-24T01:53:32.790Z,8.31
2023-05-24T01:56:02.145Z,8.30
2023-05-24T01:58:30.402Z,8.17
2023-05-24T02:00:58.012Z,8.13
2023-05-24T02:03:24.596Z,8.09
2023-05-24T02:05:51.481Z,8.00
2023-05-24T02:08:17.988Z,8.02
2023-05-24T02:10:44.630Z,8.11
2023-05-24T02:13:11.213Z,8.09
2023-05-24T02:15:37.786Z,8.06
2023-05-24T02:18:04.776Z,7.91
2023-05-24T02:20:31.543Z,7.89
2023-05-24T02:22:58.325Z,7.96
2023-05-24T02:25:24.917Z,7.96
2023-05-24T02:27:52.194Z,7.98
2023-05-24T02:30:18.923Z,7.97
2023-05-24T02:32:45.543Z,8.05
2023-05-24T02:35:12.568Z,8.06
2023-05-24T02:37:39.086Z,8.05
2023-05-24T02:40:06.476Z,8.06
2023-05-24T02:42:32.982Z,8.03
2023-05-24T02:44:59.476Z,8.02
2023-05-24T02:47:29.243Z,8.04
2023-05-24T02:49:57.076Z,8.06
2023-05-24T02:52:23.856Z,8.05
2023-05-24T02:54:50.611Z,7.98
2023-05-24T02:57:17.134Z,7.97
2023-05-24T02:59:44.031Z,7.97
2023-05-24T03:02:13.678Z,7.88
2023-05-24T03:04:40.351Z,7.84
2023-05-24T03:07:06.912Z,7.82
2023-05-24T03:09:33.582Z,7.85
2023-05-24T03:12:00.113Z,7.84
2023-05-24T03:14:26.631Z,7.88
2023-05-24T03:16:53.173Z,7.89
2023-05-24T03:19:19.683Z,7.86
2023-05-24T03:21:46.160Z,7.83
2023-05-24T03:24:13.287Z,7.85
2023-05-24T03:26:42.867Z,7.85
2023-05-24T03:29:09.393Z,7.93
2023-05-24T03:31:36.062Z,7.89
2023-05-24T03:34:02.650Z,7.90
2023-05-24T03:36:29.313Z,7.81
2023-05-24T03:38:58.288Z,7.70
2023-05-24T03:41:25.094Z,7.77
2023-05-24T03:43:52.497Z,7.78
2023-05-24T03:46:19.194Z,7.81
2023-05-24T03:48:45.763Z,7.82
2023-05-24T03:51:12.466Z,7.83
2023-05-24T03:53:39.164Z,7.83
2023-05-24T03:56:05.950Z,7.78
2023-05-24T03:58:32.455Z,7.71
2023-05-24T04:00:59.080Z,7.67
2023-05-24T04:03:26.319Z,7.62
2023-05-24T04:05:53.733Z,7.62
2023-05-24T04:08:20.512Z,7.63
2023-05-24T04:10:47.082Z,7.66
2023-05-24T04:13:13.593Z,7.65
2023-05-24T04:15:40.640Z,7.70
2023-05-24T04:18:07.346Z,7.74
2023-05-24T04:20:33.984Z,7.79
2023-05-24T04:23:00.614Z,7.76
2023-05-24T04:25:27.615Z,7.70
2023-05-24T04:27:54.288Z,7.75
2023-05-24T04:30:21.509Z,7.77
2023-05-24T04:32:48.601Z,7.81
2023-05-24T04:35:16.760Z,7.86
2023-05-24T04:37:44.514Z,7.93
2023-05-24T04:40:11.701Z,8.03
2023-05-24T04:42:38.453Z,8.08
2023-05-24T04:45:05.730Z,8.12
2023-05-24T04:47:32.328Z,8.22
2023-05-24T04:49:58.831Z,8.34
2023-05-24T04:52:25.441Z,8.43
2023-05-24T04:54:51.962Z,8.45
2023-05-24T04:57:18.520Z,8.55
2023-05-24T04:59:45.075Z,8.60
2023-05-24T05:02:11.654Z,8.62
2023-05-24T05:04:38.293Z,8.70
2023-05-24T05:07:04.993Z,8.82
2023-05-24T05:09:31.625Z,8.99
2023-05-24T05:11:58.463Z,9.19
2023-05-24T05:14:24.982Z,9.34
2023-05-24T05:16:51.556Z,9.45
2023-05-24T05:19:19.141Z,9.61
2023-05-24T05:21:45.873Z,9.68
2023-05-24T05:24:12.698Z,9.83
2023-05-24T05:26:39.235Z,9.94
2023-05-24T05:29:05.804Z,10.04
2023-05-24T05:31:32.426Z,10.19
2023-05-24T05:33:59.022Z,10.26
2023-05-24T05:36:25.712Z,10.33
2023-05-24T05:38:52.219Z,10.42
2023-05-24T05:41:18.825Z,10.48
2023-05-24T05:43:45.367Z,10.54
2023-05-24T05:46:13.334Z,10.61
2023-05-24T05:48:39.849Z,10.61
2023-05-24T05:51:06.433Z,10.68
2023-05-24T05:53:36.200Z,10.84
2023-05-24T05:56:02.691Z,10.85
2023-05-24T05:58:29.152Z,10.87
2023-05-24T06:00:55.829Z,10.93
2023-05-24T06:03:22.536Z,10.95
2023-05-24T06:05:49.406Z,11.07
2023-05-24T06:08:15.931Z,11.15
2023-05-24T06:10:42.732Z,11.20
2023-05-24T06:13:09.448Z,11.28
2023-05-24T06:15:35.925Z,11.31
2023-05-24T06:18:02.545Z,11.32
2023-05-24T06:20:29.346Z,11.41
2023-05-24T06:22:57.112Z,11.45
2023-05-24T06:25:24.523Z,11.49
2023-05-24T06:27:54.439Z,11.53
2023-05-24T06:30:20.969Z,11.62
2023-05-24T06:32:47.615Z,11.70
2023-05-24T06:35:14.236Z,11.78
2023-05-24T06:37:40.879Z,11.90
2023-05-24T06:40:09.576Z,12.03
2023-05-24T06:42:36.961Z,12.06
2023-05-24T06:45:03.921Z,12.11
2023-05-24T06:47:30.622Z,12.12
2023-05-24T06:49:57.523Z,12.21
2023-05-24T06:52:24.144Z,12.34
2023-05-24T06:54:50.682Z,12.46
2023-05-24T06:57:17.177Z,12.56
2023-05-24T06:59:43.760Z,12.67
2023-05-24T07:02:17.281Z,12.54
2023-05-24T07:04:43.886Z,12.50
2023-05-24T07:07:13.118Z,12.66
2023-05-24T07:09:41.562Z,12.81
2023-05-24T07:12:09.093Z,12.98
2023-05-24T07:14:36.134Z,13.08
2023-05-24T07:17:02.851Z,13.18
2023-05-24T07:19:29.830Z,13.19
2023-05-24T07:21:56.848Z,13.25
2023-05-24T07:24:24.145Z,13.20
2023-05-24T07:26:51.986Z,13.42
2023-05-24T07:29:18.538Z,13.73
2023-05-24T07:31:45.509Z,13.90
2023-05-24T07:34:12.064Z,13.98
2023-05-24T07:36:38.560Z,14.06
2023-05-24T07:39:06.230Z,14.37
2023-05-24T07:41:33.478Z,14.52
2023-05-24T07:44:00.217Z,14.81
2023-05-24T07:46:26.757Z,14.77
2023-05-24T07:48:53.461Z,14.69
2023-05-24T07:51:20.876Z,14.52
2023-05-24T07:53:47.451Z,14.15
2023-05-24T07:56:14.078Z,14.05
2023-05-24T07:58:41.907Z,13.95
2023-05-24T08:01:08.789Z,13.79
2023-05-24T08:03:36.702Z,14.11
2023-05-24T08:06:04.149Z,14.54
2023-05-24T08:08:30.849Z,14.83
2023-05-24T08:10:57.377Z,14.97
2023-05-24T08:13:24.509Z,15.30
2023-05-24T08:15:50.990Z,15.68
2023-05-24T08:18:17.476Z,15.88
2023-05-24T08:20:44.038Z,16.02
2023-05-24T08:23:10.653Z,15.33
2023-05-24T08:25:37.992Z,15.01
2023-05-24T08:28:04.528Z,15.18
2023-05-24T08:30:32.397Z,15.65
2023-05-24T08:32:58.966Z,15.48
2023-05-24T08:35:25.675Z,15.63
2023-05-24T08:37:52.212Z,15.99
2023-05-24T08:40:18.873Z,16.21
2023-05-24T08:42:46.541Z,16.12
2023-05-24T08:45:15.070Z,16.13
2023-05-24T08:47:42.597Z,16.27
2023-05-24T08:50:10.230Z,16.56
2023-05-24T08:52:37.118Z,16.77
2023-05-24T08:55:07.735Z,16.82
2023-05-24T08:57:39.166Z,16.60
2023-05-24T09:00:11.830Z,16.74
2023-05-24T09:02:43.450Z,17.12
2023-05-24T09:05:11.843Z,17.26
2023-05-24T09:07:38.856Z,17.10
2023-05-24T09:10:07.480Z,16.83
2023-05-24T09:12:38.604Z,16.81
2023-05-24T09:15:07.234Z,16.92
2023-05-24T09:17:38.348Z,16.61
2023-05-24T09:20:11.243Z,16.93
2023-05-24T09:22:41.020Z,17.12
2023-05-24T09:25:10.011Z,17.23
2023-05-24T09:27:36.884Z,17.42
2023-05-24T09:30:05.552Z,17.54
2023-05-24T09:32:32.391Z,17.47
2023-05-24T09:34:59.466Z,17.37
2023-05-24T09:37:32.292Z,16.99
2023-05-24T09:39:59.780Z,16.74
2023-05-24T09:42:28.629Z,16.75
2023-05-24T09:45:08.726Z,16.78
2023-05-24T09:47:36.877Z,16.96
2023-05-24T09:50:06.735Z,16.84
2023-05-24T09:52:37.035Z,16.69
2023-05-24T09:55:17.686Z,16.61
2023-05-24T09:57:45.662Z,16.61
2023-05-24T10:00:21.725Z,16.68
2023-05-24T10:03:00.977Z,16.41
2023-05-24T10:05:27.820Z,16.38
2023-05-24T10:07:55.299Z,16.49
2023-05-24T10:10:22.805Z,16.58
2023-05-24T10:12:50.284Z,16.67
2023-05-24T10:15:17.099Z,16.51
2023-05-24T10:17:43.624Z,16.36
2023-05-24T10:20:12.575Z,16.21
2023-05-24T10:22:48.079Z,16.12
2023-05-24T10:25:20.609Z,16.38
2023-05-24T10:27:51.215Z,16.58
2023-05-24T10:30:43.815Z,16.58
2023-05-24T10:33:13.984Z,16.48
2023-05-24T10:35:41.433Z,16.56
2023-05-24T10:38:09.088Z,16.67
2023-05-24T10:40:41.317Z,16.69
2023-05-24T10:43:11.229Z,16.58
2023-05-24T10:45:41.991Z,16.56
2023-05-24T10:48:14.602Z,16.57
2023-05-24T10:50:42.676Z,16.51
2023-05-24T10:53:16.049Z,16.43
2023-05-24T10:55:56.499Z,16.40
2023-05-24T10:58:47.261Z,16.35
2023-05-24T11:01:34.945Z,16.35
2023-05-24T11:04:18.947Z,16.40
2023-05-24T11:06:48.102Z,16.26
2023-05-24T11:09:16.036Z,16.19
2023-05-24T11:11:45.912Z,16.23
2023-05-24T11:14:13.656Z,16.32
2023-05-24T11:16:40.758Z,16.45
2023-05-24T11:19:22.061Z,16.54
2023-05-24T11:21:50.924Z,16.49
2023-05-24T11:24:18.998Z,16.46
2023-05-24T11:26:46.253Z,16.42
2023-05-24T11:29:17.574Z,16.28
2023-05-24T11:31:54.627Z,16.54
2023-05-24T11:34:21.894Z,16.78
2023-05-24T11:36:49.049Z,17.08
2023-05-24T11:39:16.387Z,17.18
2023-05-24T11:41:43.704Z,17.20
2023-05-24T11:44:11.852Z,16.91
2023-05-24T11:46:39.893Z,16.87
2023-05-24T11:49:07.030Z,16.78
2023-05-24T11:51:35.912Z,17.07
2023-05-24T11:54:02.651Z,17.08
2023-05-24T11:56:33.180Z,17.14
2023-05-24T11:59:11.115Z,17.22
2023-05-24T12:01:38.335Z,17.36
2023-05-24T12:04:11.994Z,17.41
2023-05-24T12:06:43.889Z,17.47
2023-05-24T12:09:13.628Z,17.38
2023-05-24T12:11:46.621Z,17.32
2023-05-24T12:14:28.615Z,17.49
2023-05-24T12:16:57.226Z,17.49
2023-05-24T12:19:33.786Z,17.71
2023-05-24T12:22:02.031Z,17.89
2023-05-24T12:24:29.292Z,17.69
2023-05-24T12:27:06.697Z,17.51
2023-05-24T12:29:41.890Z,17.75
2023-05-24T12:32:15.282Z,17.78
2023-05-24T12:34:43.540Z,17.77
2023-05-24T12:37:12.965Z,17.83
2023-05-24T12:39:42.552Z,17.67
2023-05-24T12:42:12.383Z,17.53
2023-05-24T12:44:39.690Z,17.45
2023-05-24T12:47:08.649Z,17.48
2023-05-24T12:49:36.270Z,17.67
2023-05-24T12:52:03.414Z,17.88
2023-05-24T12:54:30.490Z,17.91
2023-05-24T12:57:00.051Z,18.26
2023-05-24T12:59:28.563Z,18.52
2023-05-24T13:01:55.750Z,18.64
2023-05-24T13:04:24.518Z,18.68
2023-05-24T13:06:51.214Z,18.44
2023-05-24T13:09:22.128Z,18.37
2023-05-24T13:11:49.079Z,18.26
2023-05-24T13:14:16.968Z,18.22
2023-05-24T13:16:44.383Z,18.18
2023-05-24T13:19:12.541Z,17.98
2023-05-24T13:21:39.910Z,17.93
2023-05-24T13:24:07.638Z,17.71
2023-05-24T13:26:38.484Z,17.86
2023-05-24T13:31:38.168Z,17.77
2023-05-24T13:34:05.492Z,17.74
2023-05-24T13:36:32.580Z,17.90
2023-05-24T13:39:13.306Z,17.79
2023-05-24T13:41:42.246Z,17.70
2023-05-24T13:44:10.195Z,17.85
2023-05-24T13:46:37.438Z,17.99
2023-05-24T13:49:05.016Z,18.23
2023-05-24T13:51:31.895Z,18.20
2023-05-24T13:53:59.059Z,17.98
2023-05-24T13:56:27.362Z,17.95
2023-05-24T13:58:55.182Z,18.01
2023-05-24T14:01:22.158Z,18.05
2023-05-24T14:03:48.944Z,17.80
2023-05-24T14:06:15.865Z,17.64
2023-05-24T14:08:42.540Z,17.75
2023-05-24T14:11:09.366Z,17.70
2023-05-24T14:16:06.727Z,17.74
2023-05-24T14:18:33.711Z,18.00
2023-05-24T14:21:00.277Z,18.08
2023-05-24T14:23:27.513Z,18.20
2023-05-24T14:25:54.122Z,18.18
2023-05-24T14:28:20.979Z,17.88
2023-05-24T14:30:47.668Z,17.94
2023-05-24T14:33:14.315Z,17.72
2023-05-24T14:35:41.496Z,17.66
2023-05-24T14:38:10.806Z,17.59
2023-05-24T14:40:40.414Z,17.65
2023-05-24T14:43:10.233Z,17.63
2023-05-24T14:45:38.718Z,17.56
2023-05-24T14:48:05.955Z,17.63
2023-05-24T14:50:32.613Z,17.62
2023-05-24T14:53:00.524Z,17.88
2023-05-24T14:55:27.055Z,18.04
2023-05-24T14:57:53.620Z,17.87
2023-05-24T15:00:22.765Z,17.87
2023-05-24T15:02:50.982Z,17.77
2023-05-24T15:05:17.889Z,17.64
2023-05-24T15:07:44.582Z,17.78
2023-05-24T15:10:11.849Z,17.86
2023-05-24T15:12:40.033Z,17.75
2023-05-24T15:15:07.824Z,17.79
2023-05-24T15:17:34.683Z,17.98
2023-05-24T15:20:01.853Z,18.07
2023-05-24T15:22:28.571Z,17.69
2023-05-24T15:24:56.169Z,17.80
2023-05-24T15:27:23.077Z,17.96
2023-05-24T15:29:54.327Z,18.05
2023-05-24T15:32:21.171Z,18.17
2023-05-24T15:34:47.820Z,18.14
2023-05-24T15:37:14.435Z,18.03
2023-05-24T15:39:41.559Z,18.05
2023-05-24T15:42:08.750Z,18.28
2023-05-24T15:44:35.425Z,18.33
2023-05-24T15:47:02.178Z,18.41
2023-05-24T15:49:29.364Z,18.65
2023-05-24T15:54:25.897Z,18.55
2023-05-24T15:56:52.687Z,18.30
2023-05-24T15:59:21.531Z,18.22
2023-05-24T16:01:48.412Z,18.08
2023-05-24T16:04:15.859Z,18.03
2023-05-24T16:06:42.894Z,18.05
2023-05-24T16:09:09.697Z,18.13
2023-05-24T16:11:36.510Z,18.11
2023-05-24T16:14:03.682Z,17.89
2023-05-24T16:16:30.420Z,17.79
2023-05-24T16:18:56.992Z,17.49
2023-05-24T16:21:24.459Z,17.58
2023-05-24T16:23:51.186Z,17.58
2023-05-24T16:26:19.175Z,17.53
2023-05-24T16:28:45.913Z,17.38
2023-05-24T16:31:12.648Z,17.22
2023-05-24T16:33:39.915Z,17.25
2023-05-24T16:36:06.897Z,17.31
2023-05-24T16:38:34.100Z,17.30
2023-05-24T16:41:00.942Z,17.25
2023-05-24T16:43:27.888Z,17.19
2023-05-24T16:45:55.264Z,16.99
2023-05-24T16:48:29.211Z,16.83
2023-05-24T16:50:56.783Z,16.87
2023-05-24T16:53:27.239Z,16.62
2023-05-24T16:55:56.100Z,16.69
2023-05-24T16:58:24.241Z,16.76
2023-05-24T17:00:51.392Z,16.82
2023-05-24T17:03:18.506Z,16.78
2023-05-24T17:05:46.531Z,16.70
2023-05-24T17:08:13.271Z,16.72
2023-05-24T17:10:43.348Z,16.56
2023-05-24T17:13:10.364Z,16.43
2023-05-24T17:15:37.488Z,16.42
2023-05-24T17:18:04.264Z,16.34
2023-05-24T17:20:32.223Z,16.21
2023-05-24T17:22:58.929Z,16.33
2023-05-24T17:25:25.528Z,16.38
2023-05-24T17:27:53.155Z,16.30
2023-05-24T17:30:25.669Z,16.13
2023-05-24T17:32:52.607Z,16.24
2023-05-24T17:35:19.324Z,16.19
2023-05-24T17:37:46.085Z,16.09
2023-05-24T17:40:12.687Z,16.10
2023-05-24T17:42:39.323Z,15.98
2023-05-24T17:45:07.755Z,15.98
2023-05-24T17:47:35.016Z,15.91
2023-05-24T17:50:03.355Z,15.89
2023-05-24T17:52:30.067Z,15.95
2023-05-24T17:54:56.829Z,16.01
2023-05-24T17:57:23.746Z,16.08
2023-05-24T17:59:50.577Z,15.99
2023-05-24T18:02:17.334Z,15.88
2023-05-24T18:04:44.283Z,15.75
2023-05-24T18:07:11.381Z,15.69
2023-05-24T18:09:39.997Z,15.85
2023-05-24T18:12:08.775Z,15.90
2023-05-24T18:14:35.475Z,15.64
2023-05-24T18:17:02.462Z,15.66
2023-05-24T18:19:29.588Z,15.68
2023-05-24T18:22:02.140Z,15.63
2023-05-24T18:24:28.969Z,15.71
2023-05-24T18:26:55.638Z,15.71
2023-05-24T18:29:22.361Z,15.69
2023-05-24T18:31:49.493Z,15.64
2023-05-24T18:34:18.975Z,15.56
2023-05-24T18:36:45.811Z,15.56
2023-05-24T18:39:14.210Z,15.56
2023-05-24T18:41:40.834Z,15.43
2023-05-24T18:44:07.498Z,15.42
2023-05-24T18:46:34.887Z,15.44
2023-05-24T18:49:03.271Z,15.53
2023-05-24T18:51:36.044Z,15.54
2023-05-24T18:54:02.704Z,15.49
2023-05-24T18:56:29.626Z,15.24
2023-05-24T18:58:58.791Z,15.26
2023-05-24T19:01:27.623Z,15.21
2023-05-24T19:03:54.638Z,15.32
2023-05-24T19:06:21.382Z,15.36
2023-05-24T19:08:49.552Z,15.38
2023-05-24T19:11:16.244Z,15.37
2023-05-24T19:13:43.010Z,15.32
2023-05-24T19:18:52.455Z,15.26
2023-05-24T19:21:19.371Z,15.41
2023-05-24T19:23:47.230Z,15.33
2023-05-24T19:26:18.360Z,15.33
2023-05-24T19:28:50.791Z,15.30
2023-05-24T19:31:24.231Z,15.30
2023-05-24T19:36:26.680Z,15.21
2023-05-24T19:38:54.764Z,15.21
2023-05-24T19:41:21.403Z,15.17
2023-05-24T19:43:48.318Z,15.20
2023-05-24T19:46:16.748Z,15.23
2023-05-24T19:48:44.459Z,15.18
2023-05-24T19:51:13.232Z,15.13
2023-05-24T19:53:40.087Z,15.13
2023-05-24T19:56:06.954Z,15.10
2023-05-24T19:58:33.704Z,15.07
2023-05-24T20:01:01.344Z,15.06
2023-05-24T20:03:28.201Z,15.05
2023-05-24T20:05:56.453Z,15.01
2023-05-24T20:08:24.703Z,14.99
2023-05-24T20:10:51.515Z,14.96
2023-05-24T20:13:18.209Z,14.92
2023-05-24T20:15:44.969Z,14.90
2023-05-24T20:18:14.390Z,14.83
2023-05-24T20:20:41.202Z,14.81
2023-05-24T20:23:09.089Z,14.74
2023-05-24T20:25:35.869Z,14.76
2023-05-24T20:28:04.138Z,14.67
2023-05-24T20:30:31.436Z,14.71
2023-05-24T20:32:58.851Z,14.62
2023-05-24T20:35:25.672Z,14.55
2023-05-24T20:37:52.836Z,14.52
2023-05-24T20:40:28.462Z,14.52
2023-05-24T20:42:55.429Z,14.57
2023-05-24T20:45:22.222Z,14.50
2023-05-24T20:47:49.132Z,14.48
2023-05-24T20:50:15.904Z,14.38
2023-05-24T20:52:42.654Z,14.37
2023-05-24T20:55:09.414Z,14.31
2023-05-24T20:57:36.429Z,14.29
2023-05-24T21:00:05.820Z,14.30
2023-05-24T21:02:32.856Z,14.23
2023-05-24T21:04:59.813Z,14.17
2023-05-24T21:07:27.094Z,14.09
2023-05-24T21:09:54.341Z,14.03
2023-05-24T21:12:23.465Z,13.92
2023-05-24T21:14:54.006Z,13.95
2023-05-24T21:17:20.841Z,13.92
2023-05-24T21:19:47.424Z,13.90
2023-05-24T21:22:14.395Z,13.88
2023-05-24T21:24:41.095Z,13.84
2023-05-24T21:27:07.999Z,13.80
2023-05-24T21:29:38.085Z,13.77
2023-05-24T21:32:04.858Z,13.69
2023-05-24T21:34:33.830Z,13.70
2023-05-24T21:37:01.158Z,13.62
2023-05-24T21:39:27.814Z,13.60
2023-05-24T21:41:54.485Z,13.63
2023-05-24T21:44:22.410Z,13.57
2023-05-24T21:46:50.647Z,13.45
2023-05-24T21:49:17.434Z,13.42
2023-05-24T21:51:45.231Z,13.39
2023-05-24T21:54:11.834Z,13.38
2023-05-24T21:56:38.361Z,13.31
2023-05-24T21:59:05.049Z,13.33
2023-05-24T22:01:31.807Z,13.25
2023-05-24T22:03:59.289Z,13.15
2023-05-24T22:06:26.295Z,13.13
2023-05-24T22:08:55.700Z,13.10
2023-05-24T22:11:22.403Z,13.10
2023-05-24T22:13:49.031Z,13.11
2023-05-24T22:16:15.904Z,13.04
2023-05-24T22:18:42.454Z,12.95
2023-05-24T22:21:09.165Z,12.87
2023-05-24T22:23:35.779Z,12.78
2023-05-24T22:26:02.469Z,12.78
2023-05-24T22:28:29.098Z,12.73
2023-05-24T22:30:57.404Z,12.75
2023-05-24T22:33:23.953Z,12.71
2023-05-24T22:35:51.380Z,12.68
2023-05-24T22:38:17.893Z,12.71
2023-05-24T22:40:45.695Z,12.72
2023-05-24T22:43:12.214Z,12.74
2023-05-24T22:45:38.767Z,12.71
2023-05-24T22:48:05.515Z,12.69
2023-05-24T22:50:32.290Z,12.68
2023-05-24T22:52:58.830Z,12.68
2023-05-24T22:55:25.465Z,12.59
2023-05-24T22:57:51.944Z,12.59
2023-05-24T23:00:18.693Z,12.57
2023-05-24T23:02:45.180Z,12.56
2023-05-24T23:05:11.788Z,12.37
2023-05-24T23:07:39.849Z,12.35
2023-05-24T23:10:08.002Z,12.37
2023-05-24T23:12:35.821Z,12.36
2023-05-24T23:15:02.636Z,12.22
2023-05-24T23:17:29.362Z,12.23
2023-05-24T23:19:56.053Z,12.25
2023-05-24T23:22:23.697Z,12.22
2023-05-24T23:24:50.352Z,12.21
2023-05-24T23:27:17.266Z,12.16
2023-05-24T23:29:43.774Z,12.11
2023-05-24T23:32:10.543Z,12.02
2023-05-24T23:34:37.361Z,11.96
2023-05-24T23:37:04.845Z,11.89
2023-05-24T23:39:31.651Z,11.91
2023-05-24T23:41:58.203Z,11.85
2023-05-24T23:44:25.714Z,11.81
2023-05-24T23:46:53.252Z,11.72
2023-05-24T23:49:20.476Z,11.60
2023-05-24T23:51:47.378Z,11.57
2023-05-24T23:54:19.003Z,11.52
2023-05-24T23:56:45.866Z,11.56
2023-05-24T23:59:12.618Z,11.53
